createdAt,value
2018-07-28T00:02:06.999Z,59.80
2018-07-28T00:05:31.759Z,60.20
2018-07-28T00:08:56.527Z,59.40
2018-07-28T00:12:21.287Z,59.10
2018-07-28T00:15:46.208Z,58.40
2018-07-28T00:19:10.886Z,59.20
2018-07-28T00:22:35.726Z,59.10
2018-07-28T00:26:18.231Z,58.70
2018-07-28T00:29:42.982Z,59.00
2018-07-28T00:36:32.050Z,59.60
2018-07-28T00:39:56.858Z,59.80
2018-07-28T00:43:21.502Z,59.90
2018-07-28T00:46:46.258Z,62.20
2018-07-28T00:50:11.058Z,62.20
2018-07-28T00:53:35.768Z,59.80
2018-07-28T00:57:01.114Z,61.90
2018-07-28T01:00:25.821Z,61.70
2018-07-28T01:07:14.976Z,60.60
2018-07-28T01:14:04.302Z,61.60
2018-07-28T01:20:53.497Z,60.80
2018-07-28T01:24:18.228Z,61.40
2018-07-28T01:27:43.011Z,62.50
2018-07-28T01:31:07.854Z,62.80
2018-07-28T01:34:32.617Z,61.20
2018-07-28T01:37:57.348Z,61.80
2018-07-28T01:41:22.076Z,62.20
2018-07-28T01:44:46.820Z,64.50
2018-07-28T01:48:11.647Z,64.80
2018-07-28T01:51:36.734Z,64.00
2018-07-28T01:55:01.457Z,64.40
2018-07-28T01:58:26.154Z,64.80
2018-07-28T02:01:50.925Z,65.80
2018-07-28T02:05:15.628Z,67.40
2018-07-28T02:12:04.843Z,68.00
2018-07-28T02:15:29.652Z,67.30
2018-07-28T02:18:54.309Z,67.90
2018-07-28T02:22:18.969Z,68.10
2018-07-28T02:25:43.691Z,68.30
2018-07-28T02:29:09.872Z,67.80
2018-07-28T02:32:35.143Z,68.50
2018-07-28T02:36:00.030Z,68.70
2018-07-28T02:39:24.743Z,68.50
2018-07-28T02:42:49.456Z,68.90
2018-07-28T02:46:14.196Z,70.00
2018-07-28T02:49:38.876Z,69.80
2018-07-28T02:53:03.887Z,69.70
2018-07-28T02:59:53.147Z,69.80
2018-07-28T03:03:17.910Z,70.20
2018-07-28T03:06:42.609Z,70.30
2018-07-28T03:10:08.230Z,71.00
2018-07-28T03:13:32.976Z,70.70
2018-07-28T03:16:57.627Z,67.70
2018-07-28T03:20:22.493Z,68.90
2018-07-28T03:25:11.657Z,70.00
2018-07-28T03:28:36.389Z,70.50
2018-07-28T03:32:01.143Z,71.30
2018-07-28T03:35:26.024Z,71.10
2018-07-28T03:38:50.833Z,71.00
2018-07-28T03:45:39.972Z,71.90
2018-07-28T03:49:04.777Z,72.40
2018-07-28T03:55:53.756Z,73.10
2018-07-28T03:59:18.503Z,73.70
2018-07-28T04:02:43.261Z,73.90
2018-07-28T04:06:08.043Z,71.60
2018-07-28T04:09:32.863Z,71.80
2018-07-28T04:12:57.557Z,72.20
2018-07-28T04:16:22.288Z,71.60
2018-07-28T04:19:46.966Z,71.10
2018-07-28T04:23:11.740Z,72.20
2018-07-28T04:26:36.457Z,72.60
2018-07-28T04:30:01.153Z,73.10
2018-07-28T04:33:25.983Z,72.50
2018-07-28T04:36:50.828Z,73.10
2018-07-28T04:40:15.486Z,74.30
2018-07-28T04:43:40.232Z,75.20
2018-07-28T04:47:05.093Z,75.70
2018-07-28T04:50:29.956Z,75.10
2018-07-28T04:53:54.685Z,75.60
2018-07-28T04:57:19.402Z,74.20
2018-07-28T05:00:44.072Z,73.50
2018-07-28T05:04:08.948Z,72.20
2018-07-28T05:07:33.820Z,71.90
2018-07-28T05:10:58.389Z,70.10
2018-07-28T05:14:23.217Z,70.40
2018-07-28T05:17:48.065Z,69.80
2018-07-28T05:21:13.159Z,69.10
2018-07-28T05:24:38.455Z,68.80
2018-07-28T05:28:03.160Z,68.80
2018-07-28T05:31:27.913Z,68.90
2018-07-28T05:34:52.594Z,67.70
2018-07-28T05:38:17.259Z,67.40
2018-07-28T05:41:42.030Z,66.70
2018-07-28T05:45:07.488Z,66.30
2018-07-28T05:48:32.247Z,66.40
2018-07-28T05:51:57.121Z,66.30
2018-07-28T05:55:21.878Z,66.30
2018-07-28T05:58:46.659Z,66.40
2018-07-28T06:02:11.357Z,66.90
2018-07-28T06:05:37.511Z,66.20
2018-07-28T06:09:02.173Z,66.10
2018-07-28T06:12:26.920Z,66.60
2018-07-28T06:15:51.707Z,66.60
2018-07-28T06:19:16.335Z,66.60
2018-07-28T06:22:41.757Z,66.40
2018-07-28T06:26:06.606Z,66.60
2018-07-28T06:32:55.727Z,66.80
2018-07-28T06:36:20.602Z,66.70
2018-07-28T06:39:46.051Z,67.50
2018-07-28T06:43:11.419Z,68.30
2018-07-28T06:46:36.223Z,68.00
2018-07-28T06:50:01.321Z,71.20
2018-07-28T06:53:26.032Z,70.00
2018-07-28T06:56:50.767Z,70.10
2018-07-28T07:00:15.647Z,69.60
2018-07-28T07:03:40.409Z,67.10
2018-07-28T07:07:06.107Z,66.80
2018-07-28T07:10:31.558Z,69.60
2018-07-28T07:13:56.319Z,76.40
2018-07-28T07:17:21.683Z,85.20
2018-07-28T07:20:46.385Z,90.10
2018-07-28T07:24:11.218Z,91.00
2018-07-28T07:31:00.722Z,86.80
2018-07-28T07:34:25.491Z,85.40
2018-07-28T07:37:50.355Z,89.10
2018-07-28T07:41:15.084Z,90.70
2018-07-28T07:51:29.353Z,86.40
2018-07-28T07:54:54.051Z,85.00
2018-07-28T07:58:18.887Z,86.50
2018-07-28T08:01:44.236Z,89.00
2018-07-28T08:05:09.278Z,87.60
2018-07-28T08:08:37.292Z,88.80
2018-07-28T08:12:02.773Z,89.60
2018-07-28T08:15:29.729Z,90.10
2018-07-28T08:18:54.922Z,90.20
2018-07-28T08:22:21.096Z,90.30
2018-07-28T08:25:45.866Z,90.80
2018-07-28T08:29:10.660Z,90.80
2018-07-28T08:32:35.452Z,90.80
2018-07-28T08:36:00.316Z,90.10
2018-07-28T08:39:25.095Z,90.10
2018-07-28T08:42:50.024Z,90.40
2018-07-28T08:46:16.562Z,91.00
2018-07-28T08:49:41.463Z,92.20
2018-07-28T08:53:06.246Z,91.20
2018-07-28T08:56:30.904Z,90.90
2018-07-28T08:59:56.503Z,89.50
2018-07-28T09:03:21.454Z,85.70
2018-07-28T09:10:11.171Z,82.30
2018-07-28T09:17:01.842Z,80.50
2018-07-28T09:20:26.620Z,79.60
2018-07-28T09:23:51.389Z,79.50
2018-07-28T09:30:40.587Z,79.50
2018-07-28T09:47:43.964Z,76.50
2018-07-28T09:51:09.023Z,72.50
2018-07-28T09:54:33.742Z,72.10
2018-07-28T09:57:58.749Z,74.70
2018-07-28T10:01:24.327Z,75.40
2018-07-28T10:04:49.171Z,77.70
2018-07-28T10:08:13.893Z,77.60
2018-07-28T10:11:38.596Z,78.00
2018-07-28T10:18:27.784Z,77.20
2018-07-28T11:39:08.756Z,76.00
2018-07-28T11:42:50.597Z,77.10
2018-07-28T11:46:15.430Z,77.90
2018-07-28T11:49:40.194Z,78.20
2018-07-28T11:53:05.024Z,79.80
2018-07-28T11:56:29.711Z,81.60
2018-07-28T11:59:54.423Z,87.50
2018-07-28T12:03:19.178Z,84.70
2018-07-28T12:06:43.925Z,89.40
2018-07-28T12:10:09.811Z,90.30
2018-07-28T12:13:34.505Z,90.80
2018-07-28T12:16:59.225Z,91.50
2018-07-28T12:20:23.938Z,91.00
2018-07-28T12:23:48.693Z,91.20
2018-07-28T12:27:13.380Z,91.50
2018-07-28T12:30:38.063Z,92.40
2018-07-28T12:34:02.742Z,93.30
2018-07-28T12:37:27.395Z,92.50
2018-07-28T12:40:52.064Z,92.50
2018-07-28T12:44:16.797Z,92.20
2018-07-28T12:47:41.496Z,91.60
2018-07-28T12:51:06.225Z,91.90
2018-07-28T12:54:30.931Z,91.60
2018-07-28T12:57:55.581Z,91.60
2018-07-28T13:01:20.304Z,90.90
2018-07-28T13:08:09.400Z,91.80
2018-07-28T13:11:34.051Z,91.60
2018-07-28T13:14:58.769Z,92.20
2018-07-28T13:18:23.428Z,92.00
2018-07-28T13:21:48.189Z,92.10
2018-07-28T13:28:37.274Z,92.10
2018-07-28T13:32:01.972Z,92.60
2018-07-28T13:38:51.141Z,92.20
2018-07-28T13:45:40.298Z,93.90
2018-07-28T13:49:05.357Z,94.20
2018-07-28T13:52:31.015Z,94.50
2018-07-28T13:55:55.703Z,95.00
2018-07-28T13:59:20.457Z,95.40
2018-07-28T14:02:45.168Z,95.50
2018-07-28T14:06:10.052Z,95.80
2018-07-28T14:09:34.646Z,95.80
2018-07-28T14:12:59.449Z,96.00
2018-07-28T14:16:24.237Z,95.60
2018-07-28T14:19:48.995Z,94.40
2018-07-28T14:23:13.665Z,94.40
2018-07-28T14:26:38.339Z,93.60
2018-07-28T14:30:03.054Z,93.10
2018-07-28T14:33:27.742Z,92.30
2018-07-28T14:36:52.484Z,91.30
2018-07-28T14:40:17.333Z,91.70
2018-07-28T14:47:07.571Z,91.00
2018-07-28T14:50:32.498Z,91.30
2018-07-28T14:53:57.382Z,91.20
2018-07-28T14:57:22.293Z,90.60
2018-07-28T15:00:47.092Z,90.20
2018-07-28T15:04:11.799Z,90.40
2018-07-28T15:07:36.477Z,90.30
2018-07-28T15:11:01.213Z,90.50
2018-07-28T15:14:25.881Z,90.50
2018-07-28T15:17:50.628Z,90.20
2018-07-28T15:21:15.329Z,90.10
2018-07-28T15:28:04.546Z,87.50
2018-07-28T15:31:29.275Z,85.40
2018-07-28T15:34:53.924Z,86.50
2018-07-28T15:38:18.641Z,87.00
2018-07-28T15:41:43.348Z,85.60
2018-07-28T15:45:08.016Z,84.70
2018-07-28T15:48:32.695Z,83.90
2018-07-28T15:51:57.384Z,83.20
2018-07-28T15:55:22.232Z,80.30
2018-07-28T15:58:47.011Z,80.60
2018-07-28T16:02:11.826Z,79.90
2018-07-28T16:05:36.612Z,80.80
2018-07-28T16:09:01.270Z,80.60
2018-07-28T16:12:26.006Z,78.40
2018-07-28T16:15:50.712Z,79.50
2018-07-28T16:19:15.381Z,80.10
2018-07-28T16:22:40.191Z,78.70
2018-07-28T16:26:04.956Z,77.60
2018-07-28T16:29:29.654Z,77.70
2018-07-28T16:32:54.347Z,75.90
2018-07-28T16:36:19.008Z,75.20
2018-07-28T16:39:43.649Z,75.50
2018-07-28T16:43:08.350Z,76.30
2018-07-28T16:46:33.068Z,76.00
2018-07-28T16:49:57.795Z,75.10
2018-07-28T16:53:22.700Z,75.40
2018-07-28T17:00:11.786Z,75.40
2018-07-28T17:03:36.548Z,75.40
2018-07-28T17:10:25.646Z,76.30
2018-07-28T17:13:50.566Z,75.40
2018-07-28T17:17:15.242Z,74.80
2018-07-28T17:24:04.283Z,71.90
2018-07-28T17:27:28.960Z,72.30
2018-07-28T17:30:53.785Z,72.70
2018-07-28T17:34:18.490Z,72.70
2018-07-28T17:37:43.246Z,73.50
2018-07-28T17:41:08.403Z,74.30
2018-07-28T17:47:57.493Z,74.30
2018-07-28T17:51:22.283Z,74.20
2018-07-28T17:58:11.521Z,75.10
2018-07-28T18:01:36.235Z,74.50
2018-07-28T18:05:01.027Z,74.90
2018-07-28T18:08:25.865Z,74.20
2018-07-28T18:11:50.563Z,74.20
2018-07-28T18:15:15.315Z,74.20
2018-07-28T18:22:04.364Z,74.80
2018-07-28T18:25:30.021Z,76.20
2018-07-28T18:32:19.067Z,76.70
2018-07-28T18:35:44.016Z,76.90
2018-07-28T18:39:10.857Z,77.50
2018-07-28T18:42:35.618Z,78.40
2018-07-28T18:52:49.161Z,81.90
2018-07-28T18:56:13.890Z,81.90
2018-07-28T18:59:38.596Z,82.10
2018-07-28T19:03:03.332Z,81.20
2018-07-28T19:06:28.029Z,81.00
2018-07-28T19:09:53.377Z,79.90
2018-07-28T19:13:23.251Z,79.50
2018-07-28T19:16:48.032Z,79.20
2018-07-28T19:20:12.754Z,79.00
2018-07-28T19:23:42.557Z,79.60
2018-07-28T19:30:31.706Z,80.10
2018-07-28T19:33:56.462Z,79.40
2018-07-28T19:37:23.733Z,79.70
2018-07-28T19:40:48.436Z,79.30
2018-07-28T19:44:13.641Z,80.90
2018-07-28T19:47:38.291Z,82.50
2018-07-28T19:51:03.015Z,82.20
2018-07-28T19:54:27.778Z,82.90
2018-07-28T19:57:52.415Z,82.80
2018-07-28T20:01:17.064Z,83.30
2018-07-28T20:04:41.835Z,83.00
2018-07-28T20:08:06.604Z,82.30
2018-07-28T20:11:31.273Z,83.40
2018-07-28T20:14:55.951Z,84.90
2018-07-28T20:18:20.701Z,83.10
2018-07-28T20:21:45.370Z,82.30
2018-07-28T20:25:10.148Z,82.20
2018-07-28T20:28:34.869Z,81.80
2018-07-28T20:31:59.644Z,81.60
2018-07-28T20:35:24.284Z,83.00
2018-07-28T20:38:48.962Z,84.90
2018-07-28T20:45:37.968Z,86.10
2018-07-28T20:49:02.709Z,84.70
2018-07-28T20:52:27.385Z,84.10
2018-07-28T20:55:52.124Z,86.90
2018-07-28T20:59:16.836Z,86.70
2018-07-28T21:02:42.601Z,84.20
2018-07-28T21:06:07.278Z,84.60
2018-07-28T21:09:32.089Z,83.60
2018-07-28T21:12:56.797Z,85.20
2018-07-28T21:16:21.463Z,84.10
2018-07-28T21:19:46.302Z,84.80
2018-07-28T21:23:11.052Z,84.20
2018-07-28T21:26:35.726Z,85.30
2018-07-28T21:30:00.605Z,84.00
2018-07-28T21:36:49.666Z,83.60
2018-07-28T21:40:14.355Z,83.50
2018-07-28T21:43:39.067Z,85.40
2018-07-28T21:50:31.149Z,87.20
2018-07-28T21:53:56.494Z,89.00
2018-07-28T21:57:22.508Z,89.30
2018-07-28T22:01:02.842Z,88.30
2018-07-28T22:04:30.294Z,87.20
2018-07-28T22:07:55.761Z,88.70
2018-07-28T22:11:21.310Z,90.00
2018-07-28T22:14:46.922Z,88.40
2018-07-28T22:18:12.848Z,86.20
2018-07-28T22:21:37.583Z,87.60
2018-07-28T22:28:26.728Z,88.20
2018-07-28T22:31:51.433Z,86.80
2018-07-28T22:35:16.126Z,85.10
2018-07-28T22:38:40.918Z,85.60
2018-07-28T22:42:05.666Z,87.30
2018-07-28T22:45:30.334Z,86.00
2018-07-28T22:48:55.159Z,86.00
2018-07-28T22:52:20.032Z,86.00
2018-07-28T22:55:44.776Z,88.00
2018-07-28T22:59:09.479Z,85.80
2018-07-28T23:05:58.634Z,85.30
2018-07-28T23:09:23.295Z,86.30
2018-07-28T23:12:48.820Z,84.60
2018-07-28T23:16:13.470Z,84.30
2018-07-28T23:19:38.191Z,83.80
2018-07-28T23:23:02.961Z,84.20
2018-07-28T23:26:27.708Z,85.00
2018-07-28T23:29:52.507Z,84.30
2018-07-28T23:33:17.287Z,83.80
2018-07-28T23:36:41.941Z,84.10
2018-07-28T23:43:31.253Z,84.80
2018-07-28T23:46:55.905Z,84.40
2018-07-28T23:50:20.578Z,84.20
2018-07-28T23:53:45.212Z,83.90
2018-07-28T23:57:09.932Z,83.90
